Time;durP1;ratioP1;P1;durP2;ratioP2;P2;SDS_P1;SDS_P2;PMS_P1;PMS_P2;Temp;Humidity;BMP_temperature;BMP_pressure;BME280_temperature;BME280_humidity;BME280_pressure;Samples;Min_cycle;Max_cycle;Signal;HPM_P1;HPM_P2
2023/05/24 00:00:41;;;;;;;4.20;1.20;;;22.10;56.10;;;;;;5067318;28;20227;-44
2023/05/24 00:03:14;;;;;;;2.20;1.10;;;22.00;56.00;;;;;;5040728;28;20210;-44
2023/05/24 00:05:45;;;;;;;1.90;1.20;;;22.10;56.10;;;;;;5060838;28;20197;-44
2023/05/24 00:08:20;;;;;;;2.67;1.40;;;22.00;56.00;;;;;;5051736;28;20225;-43
2023/05/24 00:10:51;;;;;;;2.87;1.40;;;22.00;56.00;;;;;;5058857;28;20202;-43
2023/05/24 00:13:22;;;;;;;2.00;1.03;;;22.10;56.10;;;;;;5049895;28;20203;-43
2023/05/24 00:15:52;;;;;;;4.03;1.40;;;22.00;56.10;;;;;;5069752;28;20201;-43
2023/05/24 00:18:23;;;;;;;3.27;1.63;;;22.00;56.00;;;;;;5028237;28;20490;-43
2023/05/24 00:20:55;;;;;;;3.60;1.33;;;22.00;56.00;;;;;;5066864;28;20658;-44
2023/05/24 00:23:30;;;;;;;2.20;1.27;;;22.00;56.00;;;;;;5069707;28;20708;-43
2023/05/24 00:26:01;;;;;;;3.27;1.27;;;22.00;56.00;;;;;;5064099;28;20276;-43
2023/05/24 00:28:30;;;;;;;2.27;1.37;;;22.00;56.00;;;;;;5049654;28;20212;-44
2023/05/24 00:31:02;;;;;;;2.00;1.10;;;21.90;55.90;;;;;;5052590;28;20662;-43
2023/05/24 00:33:34;;;;;;;3.30;1.00;;;21.90;56.00;;;;;;5053408;28;20238;-44
2023/05/24 00:36:11;;;;;;;4.27;1.50;;;21.90;55.90;;;;;;5058943;28;20556;-43
2023/05/24 00:38:43;;;;;;;3.83;1.20;;;21.90;55.90;;;;;;5061838;28;20555;-43
2023/05/24 00:41:14;;;;;;;3.87;1.37;;;21.90;55.90;;;;;;5068009;28;20666;-44
2023/05/24 00:43:43;;;;;;;3.50;1.40;;;21.90;55.90;;;;;;5045795;28;20220;-43
2023/05/24 00:46:42;;;;;;;4.03;1.30;;;21.90;55.90;;;;;;5061364;28;20221;-43
2023/05/24 00:49:12;;;;;;;4.13;1.20;;;21.90;55.90;;;;;;5050116;28;20215;-42
2023/05/24 00:51:44;;;;;;;3.70;1.20;;;21.90;55.90;;;;;;5050792;28;20240;-43
2023/05/24 00:54:15;;;;;;;3.53;1.20;;;21.90;55.90;;;;;;5061630;28;20663;-43
2023/05/24 00:56:48;;;;;;;2.87;1.23;;;21.90;55.90;;;;;;5055115;28;20663;-43
2023/05/24 00:59:20;;;;;;;1.83;1.27;;;21.90;55.90;;;;;;5051619;28;20208;-43
2023/05/24 01:01:54;;;;;;;5.80;1.13;;;21.80;55.80;;;;;;5061658;28;20205;-43
2023/05/24 01:04:26;;;;;;;3.27;1.20;;;21.80;55.90;;;;;;5046089;28;20205;-44
2023/05/24 01:07:25;;;;;;;3.33;1.40;;;21.80;55.80;;;;;;5067601;28;20245;-42
2023/05/24 01:10:45;;;;;;;3.00;1.30;;;21.80;55.80;;;;;;5049312;28;20213;-44
2023/05/24 01:13:37;;;;;;;2.03;1.00;;;21.80;55.90;;;;;;5060410;28;20209;-42
2023/05/24 01:16:16;;;;;;;2.80;1.03;;;21.80;55.90;;;;;;5054414;28;20198;-44
2023/05/24 01:18:52;;;;;;;3.10;1.50;;;21.70;55.80;;;;;;5064636;28;20200;-44
2023/05/24 01:21:47;;;;;;;2.90;1.30;;;21.70;55.80;;;;;;5042023;28;20304;-44
2023/05/24 01:24:41;;;;;;;2.07;1.10;;;21.80;55.80;;;;;;5054823;28;20211;-44
2023/05/24 01:27:14;;;;;;;2.60;1.37;;;21.70;56.40;;;;;;5046338;28;20648;-43
2023/05/24 01:29:52;;;;;;;2.80;1.37;;;21.70;55.80;;;;;;5048666;28;20540;-44
2023/05/24 01:32:22;;;;;;;2.13;1.10;;;21.70;55.80;;;;;;5053812;28;21196;-43
2023/05/24 01:34:54;;;;;;;2.63;1.00;;;21.70;55.80;;;;;;5061077;28;20197;-42
2023/05/24 01:37:25;;;;;;;1.50;0.90;;;21.70;55.80;;;;;;5063778;28;20719;-43
2023/05/24 01:39:57;;;;;;;2.20;1.23;;;21.70;55.70;;;;;;5067746;28;20255;-43
2023/05/24 01:42:54;;;;;;;2.77;1.10;;;21.60;55.70;;;;;;5051101;28;20260;-44
2023/05/24 01:46:01;;;;;;;3.17;1.10;;;21.70;55.70;;;;;;5057676;28;20225;-43
2023/05/24 01:48:38;;;;;;;1.90;0.93;;;21.60;55.70;;;;;;5060518;28;20227;-44
2023/05/24 01:51:10;;;;;;;2.13;1.47;;;21.60;55.80;;;;;;5060226;28;20243;-43
2023/05/24 01:53:54;;;;;;;1.97;0.90;;;21.60;55.70;;;;;;5061654;28;20193;-43
2023/05/24 01:56:28;;;;;;;2.93;1.23;;;21.60;55.70;;;;;;5036757;28;20194;-43
2023/05/24 01:59:11;;;;;;;3.00;1.30;;;21.60;55.80;;;;;;5062170;28;20233;-44
2023/05/24 02:01:43;;;;;;;2.47;0.80;;;21.60;55.70;;;;;;5041970;28;20295;-44
2023/05/24 02:04:11;;;;;;;3.07;1.33;;;21.60;55.60;;;;;;5046297;28;20201;-44
2023/05/24 02:06:43;;;;;;;1.90;1.00;;;21.60;55.80;;;;;;5043447;28;20198;-44
2023/05/24 02:09:14;;;;;;;2.37;1.10;;;21.60;55.70;;;;;;5051820;28;20643;-43
2023/05/24 02:11:51;;;;;;;4.53;1.40;;;21.60;56.20;;;;;;5063858;28;20996;-44
2023/05/24 02:14:23;;;;;;;3.10;1.40;;;21.50;55.60;;;;;;5053765;28;20224;-43
2023/05/24 02:16:57;;;;;;;2.63;1.30;;;21.50;55.70;;;;;;5067273;28;20193;-43
2023/05/24 02:19:29;;;;;;;2.90;1.40;;;21.50;55.70;;;;;;5064262;28;20223;-43
2023/05/24 02:21:59;;;;;;;3.30;1.10;;;21.50;55.70;;;;;;5064663;28;20202;-44
2023/05/24 02:24:28;;;;;;;2.33;1.07;;;21.50;55.70;;;;;;5062833;28;20194;-44
2023/05/24 02:26:59;;;;;;;1.60;0.90;;;21.50;55.70;;;;;;5058873;28;20700;-44
2023/05/24 02:29:30;;;;;;;2.53;1.30;;;21.50;55.60;;;;;;5061307;28;20201;-43
2023/05/24 02:32:01;;;;;;;1.33;0.87;;;21.50;55.60;;;;;;5066396;28;20192;-43
2023/05/24 02:34:43;;;;;;;5.10;1.37;;;21.50;55.60;;;;;;5067721;28;20714;-43
2023/05/24 02:37:15;;;;;;;2.20;0.97;;;21.50;55.60;;;;;;5065280;28;20214;-43
2023/05/24 02:39:58;;;;;;;2.50;1.10;;;21.50;55.60;;;;;;5066611;28;20287;-44
2023/05/24 02:42:28;;;;;;;3.13;1.30;;;21.50;55.60;;;;;;5067441;28;20217;-44
2023/05/24 02:44:57;;;;;;;1.70;1.07;;;21.50;55.70;;;;;;5070957;28;20667;-42
2023/05/24 02:47:27;;;;;;;2.50;1.10;;;21.50;55.60;;;;;;5071939;28;20679;-43
2023/05/24 02:49:59;;;;;;;2.23;1.17;;;21.50;55.60;;;;;;5069408;28;20522;-43
2023/05/24 02:52:33;;;;;;;1.93;1.10;;;21.50;55.60;;;;;;5069763;28;20186;-44
2023/05/24 02:55:06;;;;;;;2.57;1.17;;;21.40;55.60;;;;;;5071065;28;20668;-44
2023/05/24 02:57:38;;;;;;;1.67;1.17;;;21.40;55.60;;;;;;5065830;28;20213;-44
2023/05/24 03:00:13;;;;;;;3.10;1.10;;;21.40;55.50;;;;;;5049247;28;20610;-44
2023/05/24 03:03:01;;;;;;;2.17;1.20;;;21.40;55.50;;;;;;5054733;28;20292;-42
2023/05/24 03:05:31;;;;;;;2.77;1.47;;;21.40;55.50;;;;;;5071077;28;20196;-43
2023/05/24 03:08:00;;;;;;;2.10;1.03;;;21.40;55.60;;;;;;5069573;28;20289;-43
2023/05/24 03:10:31;;;;;;;2.60;0.80;;;21.40;55.50;;;;;;5068605;28;20232;-43
2023/05/24 03:13:01;;;;;;;2.30;1.40;;;21.40;55.50;;;;;;5069727;28;20657;-43
2023/05/24 03:15:31;;;;;;;2.73;1.30;;;21.40;55.60;;;;;;5070135;28;20202;-44
2023/05/24 03:18:03;;;;;;;4.03;1.60;;;21.40;55.50;;;;;;5065897;28;20205;-46
2023/05/24 03:20:37;;;;;;;3.67;1.40;;;21.40;55.50;;;;;;5066036;28;20611;-44
2023/05/24 03:23:08;;;;;;;1.67;1.07;;;21.30;55.50;;;;;;5074625;28;20201;-44
2023/05/24 03:25:37;;;;;;;1.77;1.00;;;21.30;55.50;;;;;;5069465;28;20201;-42
2023/05/24 03:28:08;;;;;;;1.40;1.07;;;21.40;55.50;;;;;;5066058;28;20217;-43
2023/05/24 03:30:39;;;;;;;1.90;1.10;;;21.30;55.50;;;;;;5068701;28;20193;-43
2023/05/24 03:33:11;;;;;;;2.13;1.10;;;21.30;55.50;;;;;;5064861;28;20238;-42
2023/05/24 03:35:43;;;;;;;2.07;1.10;;;21.30;55.50;;;;;;5050723;28;20197;-44
2023/05/24 03:38:15;;;;;;;2.20;1.10;;;21.30;55.40;;;;;;5070759;28;20189;-46
2023/05/24 03:40:45;;;;;;;1.73;1.17;;;21.30;55.40;;;;;;5070636;28;20216;-43
2023/05/24 03:43:16;;;;;;;2.23;1.00;;;21.30;55.40;;;;;;5074248;28;20339;-43
2023/05/24 03:45:48;;;;;;;2.77;0.83;;;21.30;56.00;;;;;;5065036;28;20213;-44
2023/05/24 03:48:20;;;;;;;1.90;1.00;;;21.30;55.50;;;;;;5077429;28;20272;-43
2023/05/24 03:50:51;;;;;;;1.27;0.80;;;21.20;55.40;;;;;;5076776;28;20198;-43
2023/05/24 03:53:22;;;;;;;2.30;1.43;;;21.20;55.50;;;;;;5053684;28;20607;-43
2023/05/24 03:55:53;;;;;;;1.70;0.90;;;21.20;55.50;;;;;;5074461;28;20206;-43
2023/05/24 03:58:25;;;;;;;2.13;1.03;;;21.20;55.50;;;;;;5068235;28;20704;-44
2023/05/24 04:01:01;;;;;;;2.77;1.00;;;21.20;55.40;;;;;;5073100;28;20291;-42
2023/05/24 04:03:35;;;;;;;1.93;1.03;;;21.20;55.40;;;;;;5068597;28;20654;-43
2023/05/24 04:06:05;;;;;;;2.03;1.17;;;21.20;55.50;;;;;;5064678;28;20527;-44
2023/05/24 04:08:36;;;;;;;3.30;1.27;;;21.20;55.40;;;;;;5070271;28;20333;-45
2023/05/24 04:11:05;;;;;;;2.77;0.90;;;21.20;55.50;;;;;;5059299;28;20203;-44
2023/05/24 04:13:36;;;;;;;2.03;1.30;;;21.20;55.50;;;;;;5067297;28;20190;-43
2023/05/24 04:16:05;;;;;;;2.03;1.10;;;21.20;55.50;;;;;;5064660;28;20913;-44
2023/05/24 04:18:35;;;;;;;2.60;1.03;;;21.20;55.50;;;;;;5067596;28;20186;-44
2023/05/24 04:21:18;;;;;;;2.10;1.27;;;21.20;55.50;;;;;;5061137;28;20310;-45
2023/05/24 04:23:46;;;;;;;2.53;1.30;;;21.10;55.40;;;;;;5028172;28;20207;-44
2023/05/24 04:26:17;;;;;;;2.93;1.50;;;21.10;55.40;;;;;;5048069;28;20495;-44
2023/05/24 04:28:47;;;;;;;2.00;1.30;;;21.10;55.40;;;;;;5059814;28;20314;-44
2023/05/24 04:31:20;;;;;;;3.23;1.23;;;21.10;55.40;;;;;;5066665;28;20247;-45
2023/05/24 04:33:52;;;;;;;1.50;0.87;;;21.10;55.40;;;;;;5065418;28;20291;-43
2023/05/24 04:36:30;;;;;;;2.70;1.20;;;21.10;55.40;;;;;;5050135;28;20193;-44
2023/05/24 04:39:03;;;;;;;1.47;1.07;;;21.10;55.40;;;;;;5061781;28;20276;-45
2023/05/24 04:41:36;;;;;;;1.77;1.10;;;21.10;55.40;;;;;;5053238;28;20194;-44
2023/05/24 04:44:07;;;;;;;2.73;1.00;;;21.10;55.40;;;;;;5053604;28;20194;-44
2023/05/24 04:46:38;;;;;;;3.00;1.20;;;21.10;55.30;;;;;;5052616;28;20209;-44
2023/05/24 04:49:09;;;;;;;2.63;1.10;;;21.10;55.40;;;;;;5067209;28;20205;-44
2023/05/24 04:51:37;;;;;;;2.27;1.17;;;21.10;55.40;;;;;;5060274;28;20198;-43
2023/05/24 04:54:08;;;;;;;2.57;1.20;;;21.10;55.50;;;;;;5048720;28;20648;-43
2023/05/24 04:56:37;;;;;;;1.40;0.90;;;21.10;55.50;;;;;;5049788;28;20232;-43
2023/05/24 04:59:07;;;;;;;4.57;1.40;;;21.10;55.50;;;;;;5057345;28;20210;-44
2023/05/24 05:01:39;;;;;;;1.87;1.10;;;21.00;55.40;;;;;;5056889;28;20213;-43
2023/05/24 05:04:10;;;;;;;2.63;1.00;;;21.10;55.50;;;;;;5052061;28;20259;-44
2023/05/24 05:06:43;;;;;;;2.70;1.40;;;21.00;55.40;;;;;;5058562;28;20198;-45
2023/05/24 05:09:12;;;;;;;2.50;1.30;;;21.10;55.50;;;;;;5033001;28;20263;-44
2023/05/24 05:11:42;;;;;;;1.93;0.80;;;21.10;55.40;;;;;;5061291;28;20209;-44
2023/05/24 05:14:11;;;;;;;3.53;1.10;;;21.10;55.40;;;;;;5062288;28;20197;-44
2023/05/24 05:16:41;;;;;;;1.80;1.23;;;21.10;55.40;;;;;;5059228;28;20194;-44
2023/05/24 05:19:09;;;;;;;2.17;1.40;;;21.10;55.40;;;;;;5063591;28;20197;-43
2023/05/24 05:21:40;;;;;;;3.60;1.40;;;21.00;55.40;;;;;;5069355;28;20217;-43
2023/05/24 05:24:10;;;;;;;1.97;0.90;;;21.10;55.40;;;;;;5056939;28;20664;-44
2023/05/24 05:26:40;;;;;;;2.90;1.30;;;21.00;55.30;;;;;;5054976;28;20627;-43
2023/05/24 05:29:13;;;;;;;2.13;1.03;;;21.10;55.40;;;;;;5050690;28;20230;-43
2023/05/24 05:31:42;;;;;;;3.30;1.40;;;21.00;55.30;;;;;;5055493;28;20215;-44
2023/05/24 05:34:12;;;;;;;2.07;1.20;;;21.00;55.30;;;;;;5048656;28;20238;-44
2023/05/24 05:36:43;;;;;;;2.87;1.23;;;21.00;55.20;;;;;;5055917;28;20256;-43
2023/05/24 05:39:13;;;;;;;4.37;1.43;;;21.00;55.20;;;;;;5047132;28;20198;-43
2023/05/24 05:41:46;;;;;;;2.33;1.30;;;21.00;55.40;;;;;;5047058;28;20199;-44
2023/05/24 05:44:18;;;;;;;2.40;1.20;;;21.00;55.20;;;;;;5044431;28;20190;-44
2023/05/24 05:46:50;;;;;;;3.53;1.43;;;21.00;55.20;;;;;;5027943;28;20221;-44
2023/05/24 05:49:21;;;;;;;5.30;1.70;;;21.00;55.30;;;;;;5047450;28;20703;-42
2023/05/24 05:51:53;;;;;;;3.27;1.67;;;21.00;55.20;;;;;;5047424;28;20205;-42
2023/05/24 05:54:23;;;;;;;2.20;1.10;;;21.00;55.20;;;;;;5052931;28;21086;-42
2023/05/24 05:56:53;;;;;;;5.83;1.60;;;21.00;55.10;;;;;;5019070;28;20917;-45
2023/05/24 05:59:22;;;;;;;5.00;1.70;;;21.00;55.20;;;;;;5038174;28;20215;-43
2023/05/24 06:01:53;;;;;;;2.00;1.27;;;21.00;55.20;;;;;;5025138;28;20687;-44
2023/05/24 06:04:23;;;;;;;4.17;1.30;;;21.00;55.30;;;;;;5037431;28;20210;-44
2023/05/24 06:06:56;;;;;;;3.33;1.50;;;21.00;55.30;;;;;;5033605;28;20187;-43
2023/05/24 06:09:25;;;;;;;4.93;1.70;;;21.00;55.30;;;;;;5047095;28;20215;-43
2023/05/24 06:11:57;;;;;;;3.90;1.53;;;21.00;55.20;;;;;;5040948;28;20799;-44
2023/05/24 06:14:29;;;;;;;3.50;1.50;;;21.00;55.20;;;;;;5046097;28;20244;-43
2023/05/24 06:17:00;;;;;;;4.60;1.90;;;21.00;55.20;;;;;;5051941;28;20202;-45
2023/05/24 06:19:31;;;;;;;5.47;1.53;;;21.00;55.20;;;;;;5052203;28;20272;-45
2023/05/24 06:22:00;;;;;;;3.97;1.57;;;21.00;55.10;;;;;;5045043;28;20207;-43
2023/05/24 06:24:28;;;;;;;5.10;1.70;;;21.00;55.20;;;;;;5027484;28;20234;-44
2023/05/24 06:27:01;;;;;;;5.63;2.00;;;21.00;55.20;;;;;;5053588;28;20194;-44
2023/05/24 06:29:33;;;;;;;4.93;2.40;;;21.00;55.10;;;;;;5051342;28;20683;-44
2023/05/24 06:32:02;;;;;;;4.77;2.17;;;21.00;55.10;;;;;;5053017;28;20212;-43
2023/05/24 06:34:31;;;;;;;5.37;2.00;;;21.00;55.20;;;;;;5048625;28;20238;-44
2023/05/24 06:37:02;;;;;;;7.07;2.37;;;21.00;55.00;;;;;;5046010;28;20194;-44
2023/05/24 06:39:30;;;;;;;6.77;2.30;;;21.00;55.10;;;;;;5046537;28;20224;-44
2023/05/24 06:41:59;;;;;;;5.17;2.23;;;21.00;55.10;;;;;;5051026;28;20781;-43
2023/05/24 06:44:34;;;;;;;11.83;4.37;;;21.00;55.00;;;;;;5057662;28;20252;-43
2023/05/24 06:47:04;;;;;;;21.87;6.57;;;21.00;56.40;;;;;;5035696;28;20219;-44
2023/05/24 06:49:35;;;;;;;19.20;6.97;;;21.00;57.70;;;;;;5050163;28;20645;-44
2023/05/24 06:52:07;;;;;;;23.87;7.00;;;21.10;58.90;;;;;;5053382;28;20198;-44
2023/05/24 06:54:43;;;;;;;15.93;6.63;;;21.20;58.90;;;;;;5036428;28;20194;-44
2023/05/24 06:57:13;;;;;;;16.50;5.67;;;21.20;58.80;;;;;;5055239;28;20201;-44
2023/05/24 06:59:44;;;;;;;14.83;5.97;;;21.20;58.20;;;;;;5045943;28;20242;-43
2023/05/24 07:02:16;;;;;;;16.00;6.00;;;21.30;57.60;;;;;;5041566;28;20217;-44
2023/05/24 07:04:48;;;;;;;18.70;6.40;;;21.40;57.50;;;;;;5045722;28;20202;-44
2023/05/24 07:07:21;;;;;;;13.17;5.60;;;21.40;57.60;;;;;;5043159;28;20209;-45
2023/05/24 07:09:52;;;;;;;14.43;4.87;;;21.50;57.40;;;;;;5049779;28;20222;-45
2023/05/24 07:12:31;;;;;;;13.07;5.30;;;21.60;57.40;;;;;;5046550;28;20202;-44
2023/05/24 07:15:08;;;;;;;15.07;5.37;;;21.70;56.90;;;;;;5037652;28;20193;-44
2023/05/24 07:17:45;;;;;;;13.20;5.20;;;21.80;56.50;;;;;;5043877;28;20642;-44
2023/05/24 07:20:15;;;;;;;11.50;4.80;;;21.90;56.50;;;;;;5043827;28;20225;-44
2023/05/24 07:22:45;;;;;;;12.27;4.90;;;22.00;55.90;;;;;;5054648;28;20219;-45
2023/05/24 07:25:15;;;;;;;10.47;4.10;;;22.10;55.80;;;;;;5052414;28;20689;-44
2023/05/24 07:27:46;;;;;;;10.13;4.30;;;22.30;55.50;;;;;;5067192;28;20205;-44
2023/05/24 07:30:17;;;;;;;11.57;4.27;;;22.30;55.20;;;;;;5047858;28;20221;-45
2023/05/24 07:32:58;;;;;;;12.67;4.30;;;22.40;55.10;;;;;;5050845;28;20276;-44
2023/05/24 07:35:39;;;;;;;8.67;3.80;;;22.50;54.90;;;;;;5062687;28;20292;-44
2023/05/24 07:38:07;;;;;;;8.60;3.07;;;22.60;55.10;;;;;;5066405;28;20206;-44
2023/05/24 07:40:38;;;;;;;13.47;3.60;;;22.60;54.90;;;;;;5068563;28;20205;-44
2023/05/24 07:43:08;;;;;;;7.20;2.97;;;22.70;54.90;;;;;;5052312;28;20225;-44
2023/05/24 07:45:37;;;;;;;9.90;3.93;;;22.70;54.80;;;;;;5062844;28;20202;-44
2023/05/24 07:48:08;;;;;;;6.97;3.07;;;22.80;54.40;;;;;;5067096;28;20214;-45
2023/05/24 07:50:39;;;;;;;7.30;3.40;;;22.80;53.30;;;;;;5071957;28;20252;-44
2023/05/24 07:53:10;;;;;;;7.30;2.97;;;22.80;53.00;;;;;;5059450;28;20198;-44
2023/05/24 07:55:44;;;;;;;8.23;2.93;;;22.80;53.00;;;;;;5068472;28;20330;-44
2023/05/24 07:58:12;;;;;;;7.17;2.53;;;22.70;53.00;;;;;;5063998;28;20736;-44
2023/05/24 08:00:44;;;;;;;8.07;3.00;;;22.60;53.10;;;;;;5070458;28;20205;-44
2023/05/24 08:03:16;;;;;;;9.87;2.90;;;22.60;53.10;;;;;;5071473;28;20228;-44
2023/05/24 08:05:49;;;;;;;8.50;2.87;;;22.50;53.10;;;;;;5069394;28;20206;-44
2023/05/24 08:08:21;;;;;;;8.60;3.07;;;22.50;53.40;;;;;;5070953;28;20205;-44
2023/05/24 08:10:53;;;;;;;6.83;2.90;;;22.50;53.30;;;;;;5068207;28;20643;-44
2023/05/24 08:13:21;;;;;;;5.67;2.70;;;22.50;53.30;;;;;;5071804;28;20193;-45
2023/05/24 08:15:51;;;;;;;5.97;2.43;;;22.40;53.30;;;;;;5071374;28;20522;-44
2023/05/24 08:18:21;;;;;;;7.17;2.70;;;22.40;53.30;;;;;;5071304;28;20219;-44
2023/05/24 08:20:50;;;;;;;7.13;2.90;;;22.30;53.30;;;;;;5073580;28;20225;-44
2023/05/24 08:23:20;;;;;;;6.87;2.50;;;22.30;53.30;;;;;;5075403;28;20509;-43
2023/05/24 08:25:48;;;;;;;5.07;2.30;;;22.30;53.50;;;;;;5073827;28;20194;-44
2023/05/24 08:28:21;;;;;;;5.07;2.53;;;22.20;53.50;;;;;;5068849;28;20274;-44
2023/05/24 08:30:56;;;;;;;6.10;2.67;;;22.20;53.50;;;;;;5064955;28;20209;-43
2023/05/24 08:33:26;;;;;;;7.80;2.87;;;22.20;53.50;;;;;;5072858;28;20285;-43
2023/05/24 08:35:55;;;;;;;4.70;2.53;;;22.10;53.50;;;;;;5061198;28;20211;-43
2023/05/24 08:38:28;;;;;;;5.97;2.83;;;22.10;53.60;;;;;;5060337;28;20237;-44
2023/05/24 08:40:57;;;;;;;6.40;2.67;;;22.10;53.70;;;;;;5064999;28;20267;-44
2023/05/24 08:43:29;;;;;;;8.20;2.40;;;22.10;53.70;;;;;;5067652;28;20226;-44
2023/05/24 08:46:12;;;;;;;6.47;2.53;;;22.00;53.70;;;;;;5054514;28;20255;-44
2023/05/24 08:48:47;;;;;;;8.00;2.87;;;22.00;53.80;;;;;;5051301;28;20193;-44
2023/05/24 08:51:17;;;;;;;8.10;3.00;;;22.00;53.70;;;;;;5069250;28;20197;-43
2023/05/24 08:54:07;;;;;;;6.07;1.97;;;22.00;53.80;;;;;;5051042;28;20189;-44
2023/05/24 08:56:42;;;;;;;5.90;2.30;;;22.00;53.80;;;;;;5056317;28;20182;-46
2023/05/24 08:59:13;;;;;;;6.33;2.43;;;21.90;53.70;;;;;;5061828;28;20712;-44
2023/05/24 09:01:48;;;;;;;6.37;2.17;;;21.90;53.80;;;;;;5051332;28;20631;-43
2023/05/24 09:04:28;;;;;;;6.23;2.67;;;21.90;53.90;;;;;;5064665;28;20206;-43
2023/05/24 09:06:58;;;;;;;6.70;2.80;;;21.90;53.90;;;;;;5051736;28;20596;-43
2023/05/24 09:09:33;;;;;;;4.93;2.10;;;21.90;53.90;;;;;;5065400;28;20263;-43
2023/05/24 09:12:04;;;;;;;6.27;2.40;;;21.80;53.80;;;;;;5045939;28;20314;-42
2023/05/24 09:14:37;;;;;;;5.20;2.27;;;21.80;53.90;;;;;;5051331;28;20194;-43
2023/05/24 09:17:05;;;;;;;5.27;2.40;;;21.80;53.80;;;;;;5041247;28;20651;-44
2023/05/24 09:19:36;;;;;;;5.03;2.03;;;21.80;53.90;;;;;;5063807;28;20818;-44
2023/05/24 09:22:07;;;;;;;4.77;2.13;;;21.80;53.90;;;;;;5047821;28;20205;-44
2023/05/24 09:24:41;;;;;;;4.20;1.80;;;21.80;53.80;;;;;;5061019;28;20206;-43
2023/05/24 09:27:20;;;;;;;4.80;2.20;;;21.80;53.80;;;;;;5050126;28;20197;-44
2023/05/24 09:29:52;;;;;;;4.50;2.40;;;21.80;53.90;;;;;;5026362;28;21395;-43
2023/05/24 09:32:23;;;;;;;6.93;2.33;;;21.80;53.90;;;;;;5024212;28;20214;-43
2023/05/24 09:34:54;;;;;;;6.43;2.40;;;21.80;53.60;;;;;;5014087;28;20230;-43
2023/05/24 09:37:30;;;;;;;5.07;2.47;;;21.80;53.60;;;;;;5027653;28;20544;-43
2023/05/24 09:40:20;;;;;;;4.27;2.20;;;21.80;53.50;;;;;;5024350;28;20262;-43
2023/05/24 09:43:03;;;;;;;5.43;2.37;;;21.80;53.70;;;;;;5043666;28;20195;-43
2023/05/24 09:45:32;;;;;;;5.07;2.20;;;21.80;53.70;;;;;;5021862;28;20202;-44
2023/05/24 09:48:19;;;;;;;4.27;2.17;;;21.80;53.40;;;;;;5040735;28;20223;-45
2023/05/24 09:51:12;;;;;;;5.90;2.30;;;21.80;53.30;;;;;;5041655;28;20225;-45
2023/05/24 09:54:00;;;;;;;4.83;2.30;;;21.80;53.50;;;;;;5017532;28;20199;-43
2023/05/24 09:56:34;;;;;;;4.10;2.30;;;21.80;53.50;;;;;;5036611;28;20535;-44
2023/05/24 09:59:08;;;;;;;6.50;2.40;;;21.80;53.50;;;;;;5039806;28;20760;-43
2023/05/24 10:01:38;;;;;;;4.40;1.87;;;21.80;53.70;;;;;;5047503;28;20605;-43
2023/05/24 10:04:11;;;;;;;5.90;2.63;;;21.80;53.50;;;;;;5027066;28;20183;-43
2023/05/24 10:07:09;;;;;;;6.80;2.40;;;21.80;53.50;;;;;;5046520;28;20182;-45
2023/05/24 10:09:41;;;;;;;4.43;2.13;;;21.80;53.50;;;;;;5011403;28;20211;-45
2023/05/24 10:12:11;;;;;;;5.13;2.40;;;21.80;53.40;;;;;;5041625;28;20213;-45
2023/05/24 10:14:41;;;;;;;5.87;2.30;;;21.80;53.40;;;;;;5043707;28;20197;-44
2023/05/24 10:17:14;;;;;;;5.97;2.40;;;21.80;53.50;;;;;;5030194;28;20264;-43
2023/05/24 10:19:43;;;;;;;4.90;2.10;;;21.80;53.70;;;;;;5020875;28;20195;-43
2023/05/24 10:22:39;;;;;;;5.13;2.40;;;21.80;53.50;;;;;;5040078;28;20206;-45
2023/05/24 10:25:22;;;;;;;5.03;2.13;;;21.90;53.50;;;;;;5038424;28;20536;-45
2023/05/24 10:28:03;;;;;;;4.20;2.17;;;21.80;53.40;;;;;;5020678;28;20203;-44
2023/05/24 10:30:40;;;;;;;4.57;2.33;;;21.90;53.70;;;;;;5018335;28;20221;-43
2023/05/24 10:33:15;;;;;;;6.13;2.43;;;21.90;53.80;;;;;;5042924;28;20191;-43
2023/05/24 10:35:52;;;;;;;4.47;1.90;;;21.80;53.80;;;;;;5038086;28;20214;-43
2023/05/24 10:38:23;;;;;;;4.13;2.37;;;21.90;53.80;;;;;;5027418;28;20186;-43
2023/05/24 10:40:54;;;;;;;6.07;2.53;;;21.80;53.80;;;;;;5005342;28;20252;-43
2023/05/24 10:43:26;;;;;;;6.53;2.47;;;21.80;53.70;;;;;;5043126;28;20283;-45
2023/05/24 10:45:57;;;;;;;3.63;1.97;;;21.80;53.80;;;;;;5034023;28;20270;-43
2023/05/24 10:48:28;;;;;;;3.47;2.00;;;21.90;53.90;;;;;;5033744;28;20258;-43
2023/05/24 10:51:38;;;;;;;4.30;2.17;;;21.90;54.60;;;;;;5033936;28;20215;-45
2023/05/24 10:54:35;;;;;;;4.70;2.13;;;21.80;53.90;;;;;;5040111;28;20236;-45
2023/05/24 10:57:24;;;;;;;3.93;1.93;;;21.90;53.90;;;;;;5040200;28;20607;-43
2023/05/24 10:59:56;;;;;;;3.50;1.77;;;21.80;53.90;;;;;;5028719;28;20207;-43
2023/05/24 11:02:34;;;;;;;4.47;2.10;;;21.80;54.00;;;;;;5027997;28;20672;-44
2023/05/24 11:05:04;;;;;;;4.30;2.43;;;21.80;54.00;;;;;;5028699;28;20230;-44
2023/05/24 11:07:41;;;;;;;5.40;2.33;;;21.90;54.10;;;;;;5035334;28;20224;-44
2023/05/24 11:10:17;;;;;;;3.50;1.80;;;21.90;54.10;;;;;;5024003;28;20206;-44
2023/05/24 11:13:01;;;;;;;3.90;2.00;;;21.80;53.90;;;;;;5035192;28;20631;-45
2023/05/24 11:15:32;;;;;;;4.70;2.40;;;21.90;54.00;;;;;;5041481;28;20253;-44
2023/05/24 11:18:11;;;;;;;4.10;2.00;;;21.80;54.00;;;;;;5030647;28;20190;-44
2023/05/24 11:20:41;;;;;;;4.37;2.00;;;21.90;54.10;;;;;;5047443;28;20279;-44
2023/05/24 11:23:21;;;;;;;5.17;2.23;;;21.90;53.90;;;;;;5034500;28;20574;-43
2023/05/24 11:25:49;;;;;;;3.90;2.10;;;21.90;53.90;;;;;;5051984;28;20194;-44
2023/05/24 11:28:19;;;;;;;5.30;2.33;;;21.90;53.90;;;;;;5043199;28;20201;-44
2023/05/24 11:31:10;;;;;;;4.53;1.97;;;21.90;53.70;;;;;;5025793;28;20717;-44
2023/05/24 11:33:46;;;;;;;4.33;2.00;;;21.90;53.80;;;;;;5040916;28;20230;-44
2023/05/24 11:36:15;;;;;;;5.23;2.20;;;21.90;53.90;;;;;;5062671;28;20541;-43
2023/05/24 11:38:46;;;;;;;3.90;2.27;;;21.90;53.80;;;;;;5071888;28;20186;-43
2023/05/24 11:41:18;;;;;;;5.60;2.30;;;21.90;53.80;;;;;;5051563;28;20197;-44
2023/05/24 11:43:46;;;;;;;4.03;2.00;;;21.90;53.60;;;;;;5055171;28;20705;-43
2023/05/24 11:46:19;;;;;;;6.40;2.50;;;21.90;53.50;;;;;;5055119;28;20193;-43
2023/05/24 11:49:00;;;;;;;5.33;2.10;;;21.90;53.30;;;;;;5042740;28;20193;-43
2023/05/24 11:51:34;;;;;;;5.37;2.00;;;21.90;53.30;;;;;;5052664;28;20217;-43
2023/05/24 11:54:10;;;;;;;4.87;2.20;;;21.90;53.50;;;;;;5057686;28;20200;-44
2023/05/24 11:56:42;;;;;;;3.77;1.87;;;21.90;53.50;;;;;;5048700;28;20194;-43
2023/05/24 11:59:19;;;;;;;4.80;2.30;;;21.90;53.50;;;;;;5059092;28;20213;-43
2023/05/24 12:02:01;;;;;;;4.57;2.43;;;21.90;53.10;;;;;;5051582;28;20229;-43
2023/05/24 12:04:31;;;;;;;4.53;2.00;;;21.90;53.00;;;;;;5062495;28;20202;-44
2023/05/24 12:07:03;;;;;;;5.00;2.20;;;21.90;53.20;;;;;;5053469;28;20205;-45
2023/05/24 12:09:35;;;;;;;5.67;2.20;;;21.90;53.20;;;;;;5039694;28;20259;-44
2023/05/24 12:12:07;;;;;;;5.13;2.37;;;21.90;53.30;;;;;;5060579;28;20214;-44
2023/05/24 12:14:40;;;;;;;5.73;2.40;;;21.90;53.10;;;;;;5055914;28;20183;-44
2023/05/24 12:17:17;;;;;;;4.40;2.20;;;21.90;53.30;;;;;;5067652;28;20209;-43
2023/05/24 12:19:48;;;;;;;5.30;2.20;;;22.00;53.30;;;;;;5046918;28;20195;-43
2023/05/24 12:22:25;;;;;;;6.07;2.20;;;21.90;53.00;;;;;;5039795;28;20206;-44
2023/05/24 12:24:57;;;;;;;3.73;2.20;;;21.90;53.20;;;;;;5030206;28;20677;-44
2023/05/24 12:27:30;;;;;;;6.93;2.13;;;21.90;53.20;;;;;;5052468;28;20190;-44
2023/05/24 12:30:19;;;;;;;4.73;2.47;;;21.90;53.30;;;;;;5048231;28;20246;-43
2023/05/24 12:32:54;;;;;;;5.73;2.33;;;22.00;53.50;;;;;;5061464;28;20646;-44
2023/05/24 12:35:26;;;;;;;4.07;1.93;;;22.00;53.50;;;;;;5048593;28;20233;-43
2023/05/24 12:38:01;;;;;;;4.40;2.10;;;22.00;53.50;;;;;;5051259;28;20198;-43
2023/05/24 12:40:32;;;;;;;5.37;2.27;;;22.00;53.40;;;;;;5046119;28;20205;-43
2023/05/24 12:43:03;;;;;;;3.43;2.17;;;22.00;53.40;;;;;;5052341;28;20636;-44
2023/05/24 12:45:47;;;;;;;4.60;2.23;;;22.00;53.50;;;;;;5039123;28;20281;-43
2023/05/24 12:48:23;;;;;;;3.70;2.00;;;22.00;53.50;;;;;;5047753;28;20209;-43
2023/05/24 12:50:54;;;;;;;4.77;2.20;;;22.00;53.20;;;;;;5066204;28;20221;-44
2023/05/24 12:53:24;;;;;;;3.70;2.00;;;22.00;53.10;;;;;;5059913;28;20201;-43
2023/05/24 12:55:54;;;;;;;5.10;2.30;;;22.00;53.10;;;;;;5056946;28;20209;-44
2023/05/24 12:58:29;;;;;;;5.23;2.27;;;22.00;53.00;;;;;;5042113;28;20202;-44
2023/05/24 13:00:58;;;;;;;4.53;2.17;;;22.00;53.10;;;;;;5038651;28;20213;-43
2023/05/24 13:03:28;;;;;;;4.03;2.27;;;22.00;53.00;;;;;;5060194;28;20205;-43
2023/05/24 13:05:58;;;;;;;3.97;2.20;;;22.10;53.10;;;;;;5055851;28;20221;-44
2023/05/24 13:08:28;;;;;;;4.53;2.23;;;22.00;53.30;;;;;;5059239;28;20481;-45
2023/05/24 13:10:59;;;;;;;3.67;2.13;;;22.00;53.50;;;;;;5053989;28;20229;-45
2023/05/24 13:13:31;;;;;;;4.07;2.20;;;22.10;53.70;;;;;;5066589;28;20221;-43
2023/05/24 13:16:07;;;;;;;4.23;2.13;;;22.10;53.60;;;;;;5065931;28;20212;-44
2023/05/24 13:18:37;;;;;;;4.03;2.23;;;22.10;53.70;;;;;;5059439;28;20537;-43